Bowman, North Dakota
Current Conditions -  °F | °C
As of 10:53 AM on Wednesday 28 Jan 2015 (Local Time) from KHEI Reporting Station
Overcast Overcast  
Wind Chill: 38°   Ceiling: 10000
Heat Index: 46°   Visibility: 10mi
Dew Point: 30°   Wind: 24mph
Humidity: 54%   Direction: 310°NW
Pressure: 29.83"   Gusts: 35mph
Location:  46.18°N, 103.39°W
Report Text: KHEI 281753Z AUTO 31021G30KT 10SM OVC100 08/M01 A2983 RMK AO2 PK WND 31030/1752 SLP119 T00781011 10089 20017 51015
Loading
Personal Weather Stations






























Interactive Weather Map New forecast layout! Learn more

10-Day Weather Forecast

Advertisements
Track Severe Weather on mobile